createdAt,value
2022-10-22T00:00:15.058Z,85.40
2022-10-22T00:03:19.050Z,85.57
2022-10-22T00:06:22.440Z,86.03
2022-10-22T00:09:26.630Z,91.18
2022-10-22T00:12:30.322Z,98.90
2022-10-22T00:15:34.576Z,85.30
2022-10-22T00:18:38.433Z,88.15
2022-10-22T00:21:42.310Z,74.47
2022-10-22T00:24:45.901Z,95.13
2022-10-22T00:27:49.587Z,83.27
2022-10-22T00:30:58.312Z,96.63
2022-10-22T00:34:02.248Z,92.50
2022-10-22T00:37:06.429Z,98.90
2022-10-22T00:40:10.905Z,82.53
2022-10-22T00:43:19.211Z,103.32
2022-10-22T00:46:23.198Z,104.80
2022-10-22T00:49:27.209Z,85.60
2022-10-22T00:52:30.793Z,90.67
2022-10-22T00:55:35.645Z,85.78
2022-10-22T00:58:43.830Z,89.47
2022-10-22T01:01:48.307Z,67.85
2022-10-22T01:04:52.020Z,85.57
2022-10-22T01:07:56.414Z,88.13
2022-10-22T01:11:21.379Z,89.30
2022-10-22T01:14:37.102Z,100.97
2022-10-22T01:17:58.626Z,99.80
2022-10-22T01:21:11.655Z,103.60
2022-10-22T01:24:29.801Z,83.85
2022-10-22T01:28:10.445Z,85.32
2022-10-22T01:31:15.427Z,88.22
2022-10-22T01:34:20.562Z,76.80
2022-10-22T01:37:26.751Z,77.70
2022-10-22T01:40:30.240Z,87.05
2022-10-22T01:43:34.297Z,88.35
2022-10-22T01:46:40.024Z,102.68
2022-10-22T01:50:30.527Z,103.18
2022-10-22T01:53:57.329Z,97.60
2022-10-22T01:57:14.683Z,94.82
2022-10-22T02:00:20.123Z,91.72
2022-10-22T02:03:32.205Z,93.45
2022-10-22T02:06:39.679Z,98.30
2022-10-22T02:09:44.126Z,100.83
2022-10-22T02:12:52.918Z,94.18
2022-10-22T02:15:57.687Z,79.43
2022-10-22T02:19:14.964Z,87.10
2022-10-22T02:22:18.794Z,80.65
2022-10-22T02:25:23.898Z,90.47
2022-10-22T02:28:52.301Z,85.32
2022-10-22T02:31:58.942Z,71.68
2022-10-22T02:35:03.875Z,75.90
2022-10-22T02:38:08.775Z,75.65
2022-10-22T02:41:12.340Z,72.20
2022-10-22T02:44:16.373Z,73.10
2022-10-22T02:47:20.171Z,75.20
2022-10-22T02:50:24.152Z,80.10
2022-10-22T02:53:28.109Z,75.88
2022-10-22T02:56:32.047Z,76.40
2022-10-22T02:59:35.602Z,77.03
2022-10-22T03:02:39.894Z,79.75
2022-10-22T03:05:42.691Z,81.40
2022-10-22T03:08:46.603Z,84.55
2022-10-22T03:11:50.170Z,63.77
2022-10-22T03:14:53.045Z,65.05
2022-10-22T03:17:56.319Z,70.07
2022-10-22T03:21:29.995Z,76.45
2022-10-22T03:24:39.026Z,78.78
2022-10-22T03:27:43.705Z,81.20
2022-10-22T03:30:48.145Z,82.30
2022-10-22T03:33:51.731Z,90.15
2022-10-22T03:36:56.176Z,89.43
2022-10-22T03:39:59.899Z,89.15
2022-10-22T03:43:03.957Z,72.70
2022-10-22T03:46:08.106Z,50.57
2022-10-22T03:49:11.802Z,50.40
2022-10-22T03:52:16.318Z,61.15
2022-10-22T03:55:20.048Z,61.55
2022-10-22T03:58:24.064Z,53.50
2022-10-22T04:01:28.688Z,52.37
2022-10-22T04:04:33.153Z,74.15
2022-10-22T04:07:36.482Z,57.42
2022-10-22T04:10:40.928Z,59.00
2022-10-22T04:13:45.326Z,65.13
2022-10-22T04:16:49.279Z,55.10
2022-10-22T04:19:52.856Z,54.47
2022-10-22T04:22:56.614Z,41.08
2022-10-22T04:26:01.748Z,42.60
2022-10-22T04:29:10.556Z,46.43
2022-10-22T04:32:16.657Z,33.00
2022-10-22T04:35:20.725Z,34.42
2022-10-22T04:38:24.493Z,36.25
2022-10-22T04:41:33.799Z,26.55
2022-10-22T04:44:37.283Z,27.40
2022-10-22T04:47:41.341Z,24.95
2022-10-22T04:50:44.794Z,40.67
2022-10-22T04:53:48.506Z,23.80
2022-10-22T04:56:51.643Z,28.27
2022-10-22T04:59:55.632Z,34.80
2022-10-22T05:02:58.537Z,32.80
2022-10-22T05:06:03.320Z,30.35
2022-10-22T05:09:09.632Z,42.03
2022-10-22T05:12:13.681Z,33.17
2022-10-22T05:15:17.337Z,36.90
2022-10-22T05:18:22.574Z,39.17
2022-10-22T05:21:26.908Z,57.05
2022-10-22T05:24:32.937Z,36.97
2022-10-22T05:27:35.849Z,50.75
2022-10-22T05:30:39.054Z,38.50
2022-10-22T05:33:43.610Z,36.23
2022-10-22T05:36:47.702Z,36.40
2022-10-22T05:40:01.706Z,40.58
2022-10-22T05:43:15.612Z,39.00
2022-10-22T05:46:23.064Z,39.40
2022-10-22T05:49:27.239Z,40.10
2022-10-22T05:52:30.845Z,40.53
2022-10-22T05:55:39.698Z,46.50
2022-10-22T05:58:45.039Z,55.38
2022-10-22T06:01:48.999Z,49.53
2022-10-22T06:04:52.581Z,85.30
2022-10-22T06:07:58.600Z,75.70
2022-10-22T06:11:02.231Z,50.30
2022-10-22T06:14:06.187Z,50.45
2022-10-22T06:17:10.248Z,45.10
2022-10-22T06:20:15.134Z,53.97
2022-10-22T06:23:18.321Z,48.60
2022-10-22T06:26:21.907Z,52.85
2022-10-22T06:29:25.655Z,46.55
2022-10-22T06:32:29.555Z,44.30
2022-10-22T06:35:33.941Z,64.67
2022-10-22T06:38:37.536Z,57.78
2022-10-22T06:41:41.259Z,51.97
2022-10-22T06:44:45.171Z,55.67
2022-10-22T06:47:49.515Z,56.27
2022-10-22T06:50:53.268Z,51.47
2022-10-22T06:53:57.927Z,51.70
2022-10-22T06:57:01.794Z,52.88
2022-10-22T07:00:08.052Z,62.08
2022-10-22T07:03:14.797Z,81.73
2022-10-22T07:06:19.386Z,85.63
2022-10-22T07:09:23.300Z,93.47
2022-10-22T07:12:27.347Z,79.90
2022-10-22T07:15:31.247Z,73.75
2022-10-22T07:18:35.786Z,67.80
2022-10-22T07:21:39.965Z,67.40
2022-10-22T07:24:43.596Z,67.45
2022-10-22T07:27:47.164Z,56.47
2022-10-22T07:30:51.273Z,63.38
2022-10-22T07:33:54.748Z,68.47
2022-10-22T07:36:58.399Z,62.40
2022-10-22T07:40:03.869Z,80.45
2022-10-22T07:43:07.550Z,64.95
2022-10-22T07:46:12.097Z,64.95
2022-10-22T07:49:15.630Z,68.87
2022-10-22T07:52:19.525Z,68.93
2022-10-22T07:55:23.183Z,67.38
2022-10-22T07:58:27.578Z,67.40
2022-10-22T08:01:31.256Z,84.45
2022-10-22T08:04:35.231Z,90.27
2022-10-22T08:07:38.817Z,75.47
2022-10-22T08:10:43.154Z,57.50
2022-10-22T08:13:46.306Z,70.22
2022-10-22T08:16:50.059Z,64.65
2022-10-22T08:19:53.566Z,58.60
2022-10-22T08:22:57.543Z,73.53
2022-10-22T08:26:00.912Z,62.53
2022-10-22T08:29:05.042Z,74.05
2022-10-22T08:32:08.697Z,68.60
2022-10-22T08:35:14.214Z,80.30
2022-10-22T08:38:21.356Z,85.70
2022-10-22T08:41:25.488Z,72.43
2022-10-22T08:44:44.314Z,80.63
2022-10-22T08:48:06.147Z,87.25
2022-10-22T08:51:14.806Z,83.53
2022-10-22T08:54:24.218Z,92.00
2022-10-22T08:57:48.732Z,79.07
2022-10-22T09:01:02.586Z,82.40
2022-10-22T09:04:17.853Z,83.22
2022-10-22T09:07:21.910Z,82.77
2022-10-22T09:10:33.557Z,82.20
2022-10-22T09:13:37.745Z,92.70
2022-10-22T09:17:06.769Z,92.57
2022-10-22T09:20:18.707Z,96.68
2022-10-22T09:23:52.657Z,227.87
2022-10-22T09:26:58.484Z,229.77
2022-10-22T09:30:02.434Z,214.05
2022-10-22T09:33:14.840Z,171.00
2022-10-22T09:36:22.510Z,139.18
2022-10-22T09:39:34.313Z,122.93
2022-10-22T09:42:38.980Z,83.60
2022-10-22T09:45:44.887Z,54.92
2022-10-22T09:49:12.348Z,60.08
2022-10-22T09:52:31.983Z,53.95
2022-10-22T09:55:35.548Z,79.23
2022-10-22T09:58:47.190Z,93.43
2022-10-22T10:02:08.365Z,111.22
2022-10-22T10:05:27.670Z,78.80
2022-10-22T10:08:31.820Z,80.32
2022-10-22T10:11:47.285Z,86.40
2022-10-22T10:15:07.540Z,83.50
2022-10-22T10:18:39.865Z,89.03
2022-10-22T10:22:00.960Z,92.05
2022-10-22T10:25:32.074Z,85.22
2022-10-22T10:28:39.874Z,98.00
2022-10-22T10:32:13.779Z,111.63
2022-10-22T10:35:47.322Z,117.13
2022-10-22T10:38:50.587Z,160.60
2022-10-22T10:42:11.743Z,194.10
2022-10-22T10:45:19.005Z,152.07
2022-10-22T10:48:34.270Z,127.18
2022-10-22T10:52:30.907Z,122.30
2022-10-22T10:55:48.730Z,165.98
2022-10-22T10:59:06.273Z,274.95
2022-10-22T11:02:45.989Z,368.33
2022-10-22T11:06:19.449Z,416.38
2022-10-22T11:09:30.875Z,409.98
2022-10-22T11:12:43.421Z,353.88
2022-10-22T11:15:57.280Z,220.82
2022-10-22T11:19:22.556Z,171.03
2022-10-22T11:22:55.001Z,158.35
2022-10-22T11:26:11.928Z,202.88
2022-10-22T11:29:30.649Z,215.93
2022-10-22T11:32:37.252Z,213.65
2022-10-22T11:35:44.246Z,216.07
2022-10-22T11:38:48.244Z,224.52
2022-10-22T11:41:53.918Z,245.73
2022-10-22T11:45:03.624Z,236.00
2022-10-22T11:48:19.438Z,239.88
2022-10-22T11:51:49.082Z,248.73
2022-10-22T11:54:58.387Z,226.25
2022-10-22T11:58:03.599Z,193.82
2022-10-22T12:01:10.106Z,201.15
2022-10-22T12:04:17.819Z,179.55
2022-10-22T12:07:59.357Z,147.83
2022-10-22T12:11:11.116Z,161.93
2022-10-22T12:14:23.971Z,151.88
2022-10-22T12:17:30.552Z,140.73
2022-10-22T12:20:33.795Z,123.72
2022-10-22T12:23:38.295Z,110.63
2022-10-22T12:26:41.949Z,122.82
2022-10-22T12:29:45.957Z,138.30
2022-10-22T12:32:51.973Z,147.52
2022-10-22T12:35:58.125Z,151.90
2022-10-22T12:39:04.754Z,159.53
2022-10-22T12:42:13.147Z,175.18
2022-10-22T12:45:16.110Z,194.68
2022-10-22T12:48:22.558Z,203.40
2022-10-22T12:51:26.591Z,184.15
2022-10-22T12:54:33.903Z,209.60
2022-10-22T12:57:36.792Z,179.15
2022-10-22T13:00:42.192Z,191.23
2022-10-22T13:03:52.172Z,319.30
2022-10-22T13:07:18.344Z,167.27
2022-10-22T13:10:32.528Z,180.80
2022-10-22T13:13:46.078Z,235.63
2022-10-22T13:17:09.291Z,422.88
2022-10-22T13:20:24.155Z,469.67
2022-10-22T13:23:29.261Z,315.58
2022-10-22T13:26:36.195Z,259.80
2022-10-22T13:29:42.457Z,215.90
2022-10-22T13:32:51.994Z,216.00
2022-10-22T13:35:57.484Z,191.45
2022-10-22T13:39:01.257Z,180.95
2022-10-22T13:42:04.473Z,157.67
2022-10-22T13:45:08.812Z,153.52
2022-10-22T13:48:22.455Z,128.63
2022-10-22T13:51:38.220Z,112.57
2022-10-22T13:54:41.854Z,134.67
2022-10-22T13:57:46.440Z,169.85
2022-10-22T14:00:58.524Z,155.52
2022-10-22T14:04:04.805Z,153.77
2022-10-22T14:07:16.236Z,157.43
2022-10-22T14:10:22.160Z,161.57
2022-10-22T14:13:27.239Z,151.38
2022-10-22T14:16:33.348Z,125.28
2022-10-22T14:19:37.020Z,104.53
2022-10-22T14:22:40.975Z,118.13
2022-10-22T14:25:45.180Z,131.85
2022-10-22T14:29:08.842Z,112.43
2022-10-22T14:32:20.902Z,82.80
2022-10-22T14:35:24.869Z,94.47
2022-10-22T14:38:29.414Z,82.80
2022-10-22T14:41:33.465Z,90.70
2022-10-22T14:44:36.343Z,80.85
2022-10-22T14:47:39.682Z,86.20
2022-10-22T14:50:44.847Z,83.68
2022-10-22T14:53:49.032Z,73.95
2022-10-22T14:56:52.168Z,76.32
2022-10-22T14:59:55.929Z,69.35
2022-10-22T15:03:03.335Z,59.00
2022-10-22T15:06:08.698Z,59.80
2022-10-22T15:09:12.513Z,70.40
2022-10-22T15:12:16.698Z,134.70
2022-10-22T15:15:22.699Z,130.68
2022-10-22T15:18:27.836Z,106.05
2022-10-22T15:21:31.494Z,108.73
2022-10-22T15:24:34.985Z,121.13
2022-10-22T15:27:38.278Z,130.93
2022-10-22T15:30:42.262Z,96.63
2022-10-22T15:33:45.820Z,105.20
2022-10-22T15:36:50.266Z,95.40
2022-10-22T15:39:54.050Z,116.45
2022-10-22T15:42:58.385Z,111.13
2022-10-22T15:46:15.345Z,124.80
2022-10-22T15:49:20.158Z,131.60
2022-10-22T15:52:24.181Z,109.57
2022-10-22T15:55:28.144Z,165.18
2022-10-22T15:58:31.952Z,229.70
2022-10-22T16:01:36.665Z,202.85
2022-10-22T16:04:40.379Z,180.45
2022-10-22T16:07:44.512Z,173.73
2022-10-22T16:10:49.051Z,149.07
2022-10-22T16:13:57.691Z,153.68
2022-10-22T16:17:02.162Z,146.90
2022-10-22T16:20:06.657Z,138.02
2022-10-22T16:23:10.143Z,120.93
2022-10-22T16:26:15.582Z,107.28
2022-10-22T16:29:19.562Z,118.43
2022-10-22T16:32:24.098Z,97.28
2022-10-22T16:35:27.817Z,107.13
2022-10-22T16:38:31.358Z,191.02
2022-10-22T16:41:36.061Z,177.73
2022-10-22T16:44:39.703Z,195.00
2022-10-22T16:47:43.790Z,153.27
2022-10-22T16:50:47.697Z,134.57
2022-10-22T16:53:56.431Z,188.75
2022-10-22T16:56:59.742Z,155.93
2022-10-22T17:00:05.648Z,253.37
2022-10-22T17:03:13.181Z,225.65
2022-10-22T17:06:17.071Z,231.00
2022-10-22T17:09:21.158Z,189.75
2022-10-22T17:12:24.923Z,315.57
2022-10-22T17:15:28.974Z,381.67
2022-10-22T17:18:33.514Z,315.38
2022-10-22T17:21:37.469Z,365.05
2022-10-22T17:24:44.426Z,320.90
2022-10-22T17:27:48.570Z,303.48
2022-10-22T17:30:51.924Z,308.17
2022-10-22T17:33:57.602Z,303.47
2022-10-22T17:37:00.953Z,281.92
2022-10-22T17:40:06.518Z,267.25
2022-10-22T17:43:09.996Z,284.08
2022-10-22T17:46:23.098Z,263.90
2022-10-22T17:49:26.995Z,292.63
2022-10-22T17:52:30.736Z,260.58
2022-10-22T17:55:35.414Z,284.37
2022-10-22T17:58:39.364Z,267.73
2022-10-22T18:01:46.100Z,268.70
2022-10-22T18:04:53.925Z,261.80
2022-10-22T18:07:57.438Z,227.23
2022-10-22T18:11:01.411Z,228.35
2022-10-22T18:14:05.555Z,205.65
2022-10-22T18:17:09.673Z,236.30
2022-10-22T18:20:13.814Z,224.75
2022-10-22T18:23:17.753Z,289.52
2022-10-22T18:26:25.880Z,310.98
2022-10-22T18:29:30.863Z,348.92
2022-10-22T18:32:34.882Z,329.38
2022-10-22T18:35:38.822Z,315.65
2022-10-22T18:38:42.346Z,297.67
2022-10-22T18:41:46.368Z,330.38
2022-10-22T18:44:52.651Z,304.15
2022-10-22T18:47:56.701Z,328.02
2022-10-22T18:51:06.480Z,341.80
2022-10-22T18:54:22.578Z,306.02
2022-10-22T18:57:27.542Z,241.45
2022-10-22T19:00:31.681Z,286.90
2022-10-22T19:03:35.637Z,269.43
2022-10-22T19:06:42.967Z,277.48
2022-10-22T19:09:48.949Z,265.73
2022-10-22T19:12:53.011Z,245.80
2022-10-22T19:16:03.310Z,213.77
2022-10-22T19:19:08.246Z,246.45
2022-10-22T19:22:11.947Z,220.93
2022-10-22T19:25:15.910Z,231.07
2022-10-22T19:28:19.564Z,212.30
2022-10-22T19:31:25.429Z,213.55
2022-10-22T19:34:28.639Z,188.23
2022-10-22T19:37:34.529Z,203.43
2022-10-22T19:40:37.730Z,189.32
2022-10-22T19:43:45.930Z,181.73
2022-10-22T19:46:48.782Z,192.07
2022-10-22T19:49:52.410Z,197.87
2022-10-22T19:52:55.502Z,187.05
2022-10-22T19:56:00.719Z,179.90
2022-10-22T19:59:06.279Z,182.27
2022-10-22T20:02:16.619Z,185.73
2022-10-22T20:05:20.309Z,182.48
2022-10-22T20:08:24.243Z,177.30
2022-10-22T20:11:29.853Z,170.98
2022-10-22T20:14:34.214Z,173.17
2022-10-22T20:17:38.066Z,161.13
2022-10-22T20:20:42.136Z,160.60
2022-10-22T20:23:44.969Z,169.95
2022-10-22T20:26:48.923Z,164.87
2022-10-22T20:29:52.568Z,163.55
2022-10-22T20:32:56.547Z,133.95
2022-10-22T20:36:06.466Z,150.60
2022-10-22T20:39:14.020Z,133.60
2022-10-22T20:42:17.623Z,132.48
2022-10-22T20:45:20.579Z,148.85
2022-10-22T20:48:30.032Z,149.65
2022-10-22T20:51:35.826Z,147.57
2022-10-22T20:54:42.978Z,131.32
2022-10-22T20:57:47.229Z,139.23
2022-10-22T21:00:51.050Z,142.45
2022-10-22T21:03:55.218Z,133.57
2022-10-22T21:06:59.318Z,149.15
2022-10-22T21:10:03.411Z,137.23
2022-10-22T21:13:07.050Z,152.40
2022-10-22T21:16:12.568Z,152.20
2022-10-22T21:19:16.673Z,147.73
2022-10-22T21:22:20.892Z,158.13
2022-10-22T21:25:24.455Z,134.70
2022-10-22T21:31:34.127Z,134.70
2022-10-22T21:34:39.060Z,109.65
2022-10-22T21:37:43.212Z,109.50
2022-10-22T21:40:47.354Z,96.15
2022-10-22T21:43:52.017Z,90.32
2022-10-22T21:46:56.266Z,93.05
2022-10-22T21:50:00.212Z,91.87
2022-10-22T21:53:03.530Z,93.57
2022-10-22T21:56:09.095Z,95.03
2022-10-22T21:59:13.142Z,80.25
2022-10-22T22:02:17.009Z,87.00
2022-10-22T22:05:22.099Z,90.03
2022-10-22T22:08:26.635Z,90.40
2022-10-22T22:11:30.710Z,88.78
2022-10-22T22:14:34.918Z,97.70
2022-10-22T22:17:38.179Z,104.00
2022-10-22T22:20:42.197Z,94.20
2022-10-22T22:23:48.168Z,110.93
2022-10-22T22:26:52.173Z,107.85
2022-10-22T22:29:55.498Z,114.07
2022-10-22T22:32:59.220Z,112.65
2022-10-22T22:36:02.944Z,103.68
2022-10-22T22:39:08.337Z,81.80
2022-10-22T22:42:11.605Z,60.45
2022-10-22T22:45:15.728Z,65.75
2022-10-22T22:48:19.484Z,65.03
2022-10-22T22:51:23.681Z,52.33
2022-10-22T22:54:27.483Z,47.55
2022-10-22T22:57:31.372Z,38.60
2022-10-22T23:00:35.267Z,42.70
2022-10-22T23:03:39.954Z,36.65
2022-10-22T23:06:43.799Z,21.63
2022-10-22T23:09:47.706Z,31.00
2022-10-22T23:12:50.974Z,26.43
2022-10-22T23:15:54.804Z,23.98
2022-10-22T23:19:01.130Z,27.65
2022-10-22T23:22:05.075Z,28.38
2022-10-22T23:25:08.991Z,30.50
2022-10-22T23:28:13.048Z,31.52
2022-10-22T23:31:18.220Z,45.80
2022-10-22T23:34:25.544Z,48.80
2022-10-22T23:37:29.251Z,52.13
2022-10-22T23:40:33.213Z,51.70
2022-10-22T23:43:38.189Z,79.95
2022-10-22T23:46:43.821Z,94.20
2022-10-22T23:49:47.478Z,128.60
2022-10-22T23:52:52.861Z,131.27
2022-10-22T23:55:56.547Z,123.27
2022-10-22T23:59:00.559Z,106.32
